Time;durP1;ratioP1;P1;durP2;ratioP2;P2;SDS_P1;SDS_P2;PMS_P1;PMS_P2;Temp;Humidity;BMP_temperature;BMP_pressure;BME280_temperature;BME280_humidity;BME280_pressure;Samples;Min_cycle;Max_cycle;Signal;HPM_P1;HPM_P2
2024/03/25 00:01:36;;;;;;;4.83;2.57;;;;;;;;;;772229;180;912364;-64
2024/03/25 00:04:02;;;;;;;5.23;2.83;;;;;;;;;;754655;180;918500;-65
2024/03/25 00:06:28;;;;;;;3.58;2.37;;;;;;;;;;766893;180;861619;-64
2024/03/25 00:08:54;;;;;;;3.83;2.40;;;;;;;;;;766194;180;918627;-66
2024/03/25 00:11:20;;;;;;;3.53;1.80;;;;;;;;;;774085;182;919450;-66
2024/03/25 00:13:46;;;;;;;5.63;2.80;;;;;;;;;;765729;180;1013442;-65
2024/03/25 00:16:11;;;;;;;5.90;3.40;;;;;;;;;;766968;180;920239;-65
2024/03/25 00:18:37;;;;;;;5.27;2.53;;;;;;;;;;768491;180;930182;-65
2024/03/25 00:21:04;;;;;;;4.57;2.83;;;;;;;;;;765324;180;918907;-65
2024/03/25 00:23:29;;;;;;;4.30;2.50;;;;;;;;;;767282;180;918018;-65
2024/03/25 00:25:55;;;;;;;4.27;2.30;;;;;;;;;;773934;180;918102;-65
2024/03/25 00:28:21;;;;;;;9.00;2.60;;;;;;;;;;766892;180;919811;-66
2024/03/25 00:30:47;;;;;;;4.57;2.75;;;;;;;;;;765700;180;1226793;-65
2024/03/25 00:33:12;;;;;;;3.45;1.90;;;;;;;;;;771655;180;909492;-65
2024/03/25 00:35:38;;;;;;;8.10;2.97;;;;;;;;;;768774;180;916226;-65
2024/03/25 00:38:04;;;;;;;4.87;2.92;;;;;;;;;;767263;180;918637;-65
2024/03/25 00:40:30;;;;;;;5.13;2.80;;;;;;;;;;767637;180;845953;-65
2024/03/25 00:42:56;;;;;;;4.63;2.83;;;;;;;;;;766776;181;816506;-65
2024/03/25 00:45:22;;;;;;;5.27;3.13;;;;;;;;;;761220;180;925329;-65
2024/03/25 00:47:48;;;;;;;4.10;2.37;;;;;;;;;;765681;180;1020363;-65
2024/03/25 00:50:14;;;;;;;5.87;2.30;;;;;;;;;;769470;180;918471;-64
2024/03/25 00:52:39;;;;;;;3.70;2.75;;;;;;;;;;765299;180;917446;-66
2024/03/25 00:55:05;;;;;;;4.37;2.80;;;;;;;;;;756940;182;1022031;-65
2024/03/25 00:57:32;;;;;;;6.47;2.37;;;;;;;;;;775018;180;626748;-65
2024/03/25 00:59:57;;;;;;;4.10;2.30;;;;;;;;;;765985;180;919864;-65
2024/03/25 01:02:23;;;;;;;4.33;2.30;;;;;;;;;;768853;182;714428;-66
2024/03/25 01:04:49;;;;;;;4.73;2.40;;;;;;;;;;773789;180;633160;-64
2024/03/25 01:07:14;;;;;;;5.67;2.70;;;;;;;;;;770805;180;918846;-65
2024/03/25 01:09:40;;;;;;;4.33;2.20;;;;;;;;;;767938;180;1021424;-65
2024/03/25 01:12:06;;;;;;;5.57;3.17;;;;;;;;;;771788;180;622872;-65
2024/03/25 01:14:32;;;;;;;4.80;2.40;;;;;;;;;;769931;180;919441;-65
2024/03/25 01:16:58;;;;;;;3.53;2.40;;;;;;;;;;767046;181;919178;-66
2024/03/25 01:19:24;;;;;;;5.77;2.67;;;;;;;;;;766672;182;918932;-65
2024/03/25 01:21:50;;;;;;;8.07;3.37;;;;;;;;;;766110;182;919156;-65
2024/03/25 01:24:15;;;;;;;5.27;2.47;;;;;;;;;;767011;180;917454;-65
2024/03/25 01:26:41;;;;;;;4.60;2.90;;;;;;;;;;765330;180;918988;-65
2024/03/25 01:29:07;;;;;;;4.32;2.15;;;;;;;;;;772041;180;914056;-65
2024/03/25 01:31:34;;;;;;;4.17;2.80;;;;;;;;;;769051;180;918498;-64
2024/03/25 01:33:59;;;;;;;5.70;3.47;;;;;;;;;;766613;182;916385;-65
2024/03/25 01:36:25;;;;;;;5.00;3.90;;;;;;;;;;773338;182;810537;-65
2024/03/25 01:38:50;;;;;;;4.60;2.80;;;;;;;;;;768444;180;914844;-65
2024/03/25 01:41:16;;;;;;;6.90;2.47;;;;;;;;;;766206;180;914784;-65
2024/03/25 01:43:42;;;;;;;6.03;3.27;;;;;;;;;;769272;180;900779;-65
2024/03/25 01:46:08;;;;;;;4.63;2.37;;;;;;;;;;763959;180;1123779;-65
2024/03/25 01:48:34;;;;;;;4.37;2.30;;;;;;;;;;768570;180;917373;-65
2024/03/25 01:51:00;;;;;;;3.80;2.37;;;;;;;;;;766186;180;909993;-65
2024/03/25 01:53:26;;;;;;;5.57;2.77;;;;;;;;;;772157;182;918152;-66
2024/03/25 01:55:53;;;;;;;3.63;2.27;;;;;;;;;;768964;182;817264;-65
2024/03/25 01:58:17;;;;;;;5.43;3.03;;;;;;;;;;769845;180;645887;-65
2024/03/25 02:00:43;;;;;;;4.43;2.57;;;;;;;;;;770706;181;1020548;-65
2024/03/25 02:03:09;;;;;;;3.80;2.40;;;;;;;;;;766162;180;1007170;-65
2024/03/25 02:05:35;;;;;;;5.00;2.20;;;;;;;;;;765115;180;918883;-65
2024/03/25 02:08:01;;;;;;;4.93;2.03;;;;;;;;;;772313;182;917605;-66
2024/03/25 02:10:26;;;;;;;3.53;2.03;;;;;;;;;;765847;180;947080;-65
2024/03/25 02:12:52;;;;;;;5.53;2.78;;;;;;;;;;768811;180;916586;-65
2024/03/25 02:15:18;;;;;;;4.23;2.20;;;;;;;;;;771775;182;915809;-65
2024/03/25 02:17:44;;;;;;;3.73;2.03;;;;;;;;;;768702;179;913361;-64
2024/03/25 02:20:11;;;;;;;3.40;1.80;;;;;;;;;;770528;180;918283;-65
2024/03/25 02:22:36;;;;;;;3.47;1.90;;;;;;;;;;769832;180;917334;-65
2024/03/25 02:25:02;;;;;;;3.87;2.20;;;;;;;;;;770064;180;1118534;-65
2024/03/25 02:27:30;;;;;;;3.10;1.97;;;;;;;;;;765318;180;919133;-65
2024/03/25 02:29:55;;;;;;;5.00;2.43;;;;;;;;;;766799;180;918819;-65
2024/03/25 02:32:21;;;;;;;6.23;2.70;;;;;;;;;;770787;180;914593;-64
2024/03/25 02:34:47;;;;;;;3.70;2.17;;;;;;;;;;764773;180;915605;-64
2024/03/25 02:37:13;;;;;;;5.70;3.30;;;;;;;;;;759698;180;918479;-65
2024/03/25 02:39:39;;;;;;;3.87;2.30;;;;;;;;;;770764;180;1021320;-65
2024/03/25 02:42:05;;;;;;;4.40;2.40;;;;;;;;;;766946;180;1021799;-65
2024/03/25 02:44:31;;;;;;;4.90;2.73;;;;;;;;;;769097;182;919196;-67
2024/03/25 02:46:56;;;;;;;4.03;2.30;;;;;;;;;;771437;180;1021598;-65
2024/03/25 02:49:22;;;;;;;4.63;2.10;;;;;;;;;;765143;180;953863;-65
2024/03/25 02:51:48;;;;;;;5.70;3.30;;;;;;;;;;765624;180;920264;-64
2024/03/25 02:54:14;;;;;;;2.87;1.90;;;;;;;;;;765245;180;919337;-66
2024/03/25 02:56:40;;;;;;;4.33;2.47;;;;;;;;;;768481;182;928379;-66
2024/03/25 02:59:06;;;;;;;4.47;2.60;;;;;;;;;;762256;180;1043989;-64
2024/03/25 03:01:31;;;;;;;4.47;2.50;;;;;;;;;;763184;180;1124405;-65
2024/03/25 03:03:57;;;;;;;4.53;2.60;;;;;;;;;;770434;180;918316;-64
2024/03/25 03:06:23;;;;;;;4.50;2.60;;;;;;;;;;771288;180;841546;-65
2024/03/25 03:08:49;;;;;;;8.70;3.07;;;;;;;;;;764798;180;925960;-64
2024/03/25 03:11:15;;;;;;;3.33;2.03;;;;;;;;;;774127;180;627712;-65
2024/03/25 03:13:41;;;;;;;4.83;2.37;;;;;;;;;;765420;180;921430;-64
2024/03/25 03:16:07;;;;;;;2.93;2.03;;;;;;;;;;764623;180;920049;-65
2024/03/25 03:18:32;;;;;;;4.10;2.93;;;;;;;;;;771517;180;918030;-65
2024/03/25 03:20:58;;;;;;;4.57;2.70;;;;;;;;;;765344;180;916845;-65
2024/03/25 03:23:24;;;;;;;4.17;2.60;;;;;;;;;;766338;182;1128357;-66
2024/03/25 03:25:50;;;;;;;3.30;1.60;;;;;;;;;;767507;182;917508;-65
2024/03/25 03:28:16;;;;;;;3.77;2.23;;;;;;;;;;766139;183;930312;-64
2024/03/25 03:30:42;;;;;;;4.00;2.50;;;;;;;;;;772492;179;909790;-65
2024/03/25 03:33:08;;;;;;;4.28;2.17;;;;;;;;;;769243;180;1022083;-64
2024/03/25 03:35:33;;;;;;;4.20;2.17;;;;;;;;;;771137;180;919687;-65
2024/03/25 03:37:59;;;;;;;5.40;3.10;;;;;;;;;;767169;180;1023194;-66
2024/03/25 03:40:25;;;;;;;3.62;1.98;;;;;;;;;;769541;180;918041;-66
2024/03/25 03:42:51;;;;;;;5.93;2.50;;;;;;;;;;773389;182;858956;-65
2024/03/25 03:45:17;;;;;;;5.03;2.27;;;;;;;;;;769697;181;626241;-65
2024/03/25 03:47:43;;;;;;;5.00;2.37;;;;;;;;;;767364;180;918635;-64
2024/03/25 03:50:09;;;;;;;4.80;2.70;;;;;;;;;;774656;180;630688;-65
2024/03/25 03:52:35;;;;;;;3.80;2.30;;;;;;;;;;770697;180;629755;-64
2024/03/25 03:55:00;;;;;;;4.20;2.20;;;;;;;;;;769511;180;1021662;-65
2024/03/25 03:57:27;;;;;;;3.70;2.05;;;;;;;;;;769836;180;921919;-64
2024/03/25 03:59:53;;;;;;;4.90;2.33;;;;;;;;;;769055;180;1020737;-64
2024/03/25 04:02:18;;;;;;;3.80;2.40;;;;;;;;;;764418;180;914418;-65
2024/03/25 04:04:44;;;;;;;5.45;2.20;;;;;;;;;;765057;180;918647;-65
2024/03/25 04:07:10;;;;;;;3.47;1.93;;;;;;;;;;771898;181;918028;-64
2024/03/25 04:09:36;;;;;;;4.03;2.80;;;;;;;;;;764521;180;919272;-64
2024/03/25 04:12:02;;;;;;;5.40;2.40;;;;;;;;;;764781;180;1060346;-64
2024/03/25 04:14:28;;;;;;;4.57;2.07;;;;;;;;;;770687;180;1020711;-65
2024/03/25 04:16:54;;;;;;;3.90;2.00;;;;;;;;;;767282;180;917529;-65
2024/03/25 04:19:19;;;;;;;4.73;2.20;;;;;;;;;;764151;180;915967;-64
2024/03/25 04:21:46;;;;;;;4.60;2.90;;;;;;;;;;770052;180;919537;-65
2024/03/25 04:24:11;;;;;;;2.93;1.70;;;;;;;;;;765289;180;919592;-64
2024/03/25 04:26:37;;;;;;;4.35;2.87;;;;;;;;;;764866;182;924244;-64
2024/03/25 04:29:03;;;;;;;6.40;3.20;;;;;;;;;;770560;180;920408;-64
2024/03/25 04:31:29;;;;;;;4.20;2.60;;;;;;;;;;766425;180;921361;-66
2024/03/25 04:33:55;;;;;;;4.53;2.73;;;;;;;;;;764400;180;1019438;-66
2024/03/25 04:36:20;;;;;;;5.40;2.27;;;;;;;;;;764156;180;931277;-65
2024/03/25 04:38:46;;;;;;;6.13;2.07;;;;;;;;;;768290;182;918354;-65
2024/03/25 04:41:12;;;;;;;6.20;2.80;;;;;;;;;;778855;174;916804;-65
2024/03/25 04:43:38;;;;;;;4.83;2.53;;;;;;;;;;803130;172;919463;-64
2024/03/25 04:46:04;;;;;;;4.50;2.57;;;;;;;;;;808682;171;1020907;-67
2024/03/25 04:48:30;;;;;;;5.73;2.47;;;;;;;;;;808747;170;922145;-65
2024/03/25 04:50:56;;;;;;;4.32;2.80;;;;;;;;;;807838;169;902126;-64
2024/03/25 04:53:21;;;;;;;4.50;3.07;;;;;;;;;;812709;171;1015298;-64
2024/03/25 04:55:47;;;;;;;3.40;2.40;;;;;;;;;;805064;169;967019;-64
2024/03/25 04:58:13;;;;;;;4.50;2.70;;;;;;;;;;809202;169;907043;-65
2024/03/25 05:00:39;;;;;;;3.90;2.00;;;;;;;;;;819453;169;709019;-65
2024/03/25 05:03:05;;;;;;;5.87;2.60;;;;;;;;;;810526;169;920336;-65
2024/03/25 05:05:31;;;;;;;5.57;2.57;;;;;;;;;;813162;169;627385;-65
2024/03/25 05:07:56;;;;;;;5.73;2.83;;;;;;;;;;813137;169;655566;-64
2024/03/25 05:10:22;;;;;;;4.70;2.83;;;;;;;;;;806988;172;629826;-65
2024/03/25 05:12:49;;;;;;;5.47;2.87;;;;;;;;;;812689;169;629042;-65
2024/03/25 05:15:14;;;;;;;3.67;2.40;;;;;;;;;;812843;169;649447;-64
2024/03/25 05:17:40;;;;;;;4.50;2.60;;;;;;;;;;815475;171;750890;-65
2024/03/25 05:20:06;;;;;;;4.40;2.53;;;;;;;;;;812466;169;641326;-64
2024/03/25 05:22:32;;;;;;;6.80;3.40;;;;;;;;;;817522;169;620311;-64
2024/03/25 05:24:58;;;;;;;4.40;2.73;;;;;;;;;;816426;169;625770;-65
2024/03/25 05:27:23;;;;;;;4.37;2.53;;;;;;;;;;810235;170;637811;-66
2024/03/25 05:29:49;;;;;;;4.50;2.80;;;;;;;;;;811750;170;691458;-65
2024/03/25 05:32:17;;;;;;;4.47;2.80;;;;;;;;;;815715;169;908675;-64
2024/03/25 05:34:41;;;;;;;3.80;2.87;;;;;;;;;;811680;170;624335;-64
2024/03/25 05:37:07;;;;;;;3.50;2.30;;;;;;;;;;810020;169;636059;-65
2024/03/25 05:39:33;;;;;;;6.83;2.60;;;;;;;;;;809906;170;657077;-65
2024/03/25 05:41:58;;;;;;;3.77;2.00;;;;;;;;;;811822;172;633531;-64
2024/03/25 05:44:24;;;;;;;4.03;2.43;;;;;;;;;;815798;169;885658;-65
2024/03/25 05:46:50;;;;;;;6.40;2.67;;;;;;;;;;810344;169;638639;-65
2024/03/25 05:49:16;;;;;;;4.73;2.40;;;;;;;;;;819697;169;617895;-65
2024/03/25 05:51:42;;;;;;;3.53;2.37;;;;;;;;;;813548;169;631340;-65
2024/03/25 05:54:08;;;;;;;4.80;2.10;;;;;;;;;;817718;169;622750;-65
2024/03/25 05:56:34;;;;;;;4.90;2.73;;;;;;;;;;817961;169;623783;-65
2024/03/25 05:58:59;;;;;;;3.50;2.00;;;;;;;;;;810761;169;640124;-64
2024/03/25 06:01:25;;;;;;;4.50;2.70;;;;;;;;;;812969;169;639848;-64
2024/03/25 06:03:51;;;;;;;3.73;2.40;;;;;;;;;;814250;170;921249;-64
2024/03/25 06:06:17;;;;;;;3.58;2.22;;;;;;;;;;806503;169;923269;-65
2024/03/25 06:08:43;;;;;;;4.30;2.40;;;;;;;;;;809168;169;916201;-65
2024/03/25 06:11:09;;;;;;;15.77;2.57;;;;;;;;;;816474;169;815388;-65
2024/03/25 06:13:35;;;;;;;3.20;1.90;;;;;;;;;;797905;173;919092;-65
2024/03/25 06:16:00;;;;;;;3.70;2.30;;;;;;;;;;818726;169;919240;-65
2024/03/25 06:18:27;;;;;;;5.50;2.43;;;;;;;;;;811174;169;932733;-65
2024/03/25 06:20:52;;;;;;;3.90;2.20;;;;;;;;;;813786;171;919502;-65
2024/03/25 06:23:23;;;;;;;6.40;2.60;;;;;;;;;;806117;169;918064;-66
2024/03/25 06:25:49;;;;;;;4.43;2.63;;;;;;;;;;810079;169;895500;-65
2024/03/25 06:28:15;;;;;;;3.23;2.27;;;;;;;;;;814379;169;919157;-65
2024/03/25 06:35:58;;;;;;;4.27;2.40;;;;;;;;;;797985;170;986421;-65
2024/03/25 06:38:24;;;;;;;3.67;2.07;;;;;;;;;;806706;169;918770;-65
2024/03/25 06:40:51;;;;;;;5.63;2.73;;;;;;;;;;813445;169;1120597;-65
2024/03/25 06:43:16;;;;;;;5.90;2.70;;;;;;;;;;808385;171;918404;-65
2024/03/25 06:45:41;;;;;;;3.63;2.13;;;;;;;;;;809810;169;919624;-65
2024/03/25 06:48:07;;;;;;;5.03;3.00;;;;;;;;;;812240;169;917859;-65
2024/03/25 06:50:33;;;;;;;4.80;2.77;;;;;;;;;;807128;169;918537;-65
2024/03/25 06:52:59;;;;;;;4.25;2.60;;;;;;;;;;808666;169;919014;-65
2024/03/25 06:55:27;;;;;;;4.20;2.23;;;;;;;;;;810668;169;858103;-65
2024/03/25 06:57:50;;;;;;;6.53;2.97;;;;;;;;;;796675;169;916783;-65
2024/03/25 07:00:17;;;;;;;4.03;2.33;;;;;;;;;;811717;170;919414;-65
2024/03/25 07:02:43;;;;;;;4.22;2.90;;;;;;;;;;811977;169;919037;-65
2024/03/25 07:05:09;;;;;;;3.90;2.57;;;;;;;;;;816357;169;936164;-66
2024/03/25 07:07:34;;;;;;;4.00;2.57;;;;;;;;;;810912;169;919282;-65
2024/03/25 07:10:00;;;;;;;4.33;2.50;;;;;;;;;;808445;169;933435;-65
2024/03/25 07:12:26;;;;;;;4.50;2.30;;;;;;;;;;813036;169;980721;-65
2024/03/25 07:14:52;;;;;;;5.80;2.87;;;;;;;;;;811072;169;713962;-65
2024/03/25 07:17:18;;;;;;;3.83;2.37;;;;;;;;;;807822;169;919642;-65
2024/03/25 07:19:44;;;;;;;6.47;3.00;;;;;;;;;;814931;171;920002;-65
2024/03/25 07:22:09;;;;;;;4.50;2.80;;;;;;;;;;812626;169;938420;-65
2024/03/25 07:24:35;;;;;;;4.77;2.70;;;;;;;;;;809267;169;919659;-65
2024/03/25 07:27:01;;;;;;;4.40;2.67;;;;;;;;;;814791;169;904490;-65
2024/03/25 07:29:27;;;;;;;5.40;2.90;;;;;;;;;;798062;173;924710;-65
2024/03/25 07:31:53;;;;;;;4.07;2.67;;;;;;;;;;802658;170;918283;-65
2024/03/25 07:34:19;;;;;;;4.20;2.57;;;;;;;;;;808842;170;915756;-65
2024/03/25 07:36:45;;;;;;;6.13;3.03;;;;;;;;;;814270;169;918790;-65
2024/03/25 07:39:12;;;;;;;5.63;2.70;;;;;;;;;;809768;169;927817;-66
2024/03/25 07:41:38;;;;;;;3.75;2.35;;;;;;;;;;810697;169;934348;-65
2024/03/25 07:44:04;;;;;;;4.83;2.60;;;;;;;;;;815828;169;917670;-65
2024/03/25 07:46:29;;;;;;;6.37;3.50;;;;;;;;;;809634;169;920028;-65
2024/03/25 07:48:55;;;;;;;6.90;2.80;;;;;;;;;;807467;170;927291;-65
2024/03/25 07:51:21;;;;;;;5.25;3.00;;;;;;;;;;811224;171;918866;-65
2024/03/25 07:53:47;;;;;;;5.67;3.70;;;;;;;;;;805858;169;918598;-65
2024/03/25 07:56:13;;;;;;;7.28;3.85;;;;;;;;;;806895;169;960140;-65
2024/03/25 07:58:39;;;;;;;4.90;2.57;;;;;;;;;;813621;170;816749;-65
2024/03/25 08:01:05;;;;;;;6.17;3.80;;;;;;;;;;808665;169;918845;-65
2024/03/25 08:03:30;;;;;;;5.35;3.50;;;;;;;;;;812011;169;918914;-65
2024/03/25 08:05:56;;;;;;;7.70;3.53;;;;;;;;;;808346;169;914710;-66
2024/03/25 08:08:22;;;;;;;5.80;3.20;;;;;;;;;;813034;169;917225;-65
2024/03/25 08:10:48;;;;;;;4.90;3.50;;;;;;;;;;809029;172;919407;-65
2024/03/25 08:13:14;;;;;;;7.22;3.08;;;;;;;;;;808421;169;919737;-65
2024/03/25 08:15:40;;;;;;;5.30;2.83;;;;;;;;;;812909;169;915768;-67
2024/03/25 08:18:05;;;;;;;5.20;2.70;;;;;;;;;;808348;169;923450;-65
2024/03/25 08:20:31;;;;;;;4.32;2.47;;;;;;;;;;808891;170;916675;-65
2024/03/25 08:22:57;;;;;;;4.77;2.97;;;;;;;;;;814673;169;875723;-65
2024/03/25 08:25:23;;;;;;;8.10;3.00;;;;;;;;;;814437;170;919582;-65
2024/03/25 08:27:49;;;;;;;6.10;3.10;;;;;;;;;;806943;169;919422;-65
2024/03/25 08:30:15;;;;;;;4.23;2.67;;;;;;;;;;814294;171;920149;-65
2024/03/25 08:32:41;;;;;;;3.90;2.23;;;;;;;;;;810456;169;916582;-66
2024/03/25 08:35:07;;;;;;;4.57;2.70;;;;;;;;;;808563;169;912125;-65
2024/03/25 08:37:33;;;;;;;3.70;2.50;;;;;;;;;;808729;169;1012569;-68
2024/03/25 08:39:58;;;;;;;6.60;2.67;;;;;;;;;;801457;173;919316;-66
2024/03/25 08:42:25;;;;;;;3.83;2.20;;;;;;;;;;806111;169;919704;-64
2024/03/25 08:44:50;;;;;;;3.90;2.37;;;;;;;;;;810552;169;917805;-65
2024/03/25 08:47:16;;;;;;;5.10;3.00;;;;;;;;;;813187;169;916283;-65
2024/03/25 08:49:42;;;;;;;3.33;2.33;;;;;;;;;;810403;169;903398;-66
2024/03/25 08:52:08;;;;;;;5.77;2.70;;;;;;;;;;807364;170;922071;-66
2024/03/25 08:54:33;;;;;;;5.18;2.30;;;;;;;;;;811990;169;921544;-65
2024/03/25 08:56:59;;;;;;;3.40;2.50;;;;;;;;;;809694;169;912449;-66
2024/03/25 08:59:25;;;;;;;5.47;2.87;;;;;;;;;;806703;169;918968;-65
2024/03/25 09:01:51;;;;;;;3.87;2.87;;;;;;;;;;812294;169;918695;-65
2024/03/25 09:04:17;;;;;;;4.00;2.30;;;;;;;;;;810017;170;917985;-66
2024/03/25 09:06:43;;;;;;;4.13;2.40;;;;;;;;;;810249;171;862152;-64
2024/03/25 09:11:40;;;;;;;4.57;2.67;;;;;;;;;;808307;173;838907;-66
2024/03/25 09:14:06;;;;;;;3.97;2.27;;;;;;;;;;797110;171;918455;-66
2024/03/25 09:16:32;;;;;;;4.03;2.10;;;;;;;;;;806482;170;918096;-66
2024/03/25 09:18:58;;;;;;;4.30;2.40;;;;;;;;;;814511;169;883176;-66
2024/03/25 09:21:24;;;;;;;4.00;2.00;;;;;;;;;;810860;169;910119;-65
2024/03/25 09:23:49;;;;;;;4.57;2.10;;;;;;;;;;812933;170;882270;-66
2024/03/25 09:26:15;;;;;;;4.77;3.20;;;;;;;;;;818700;169;643401;-65
2024/03/25 09:28:41;;;;;;;3.80;2.50;;;;;;;;;;807854;170;932940;-65
2024/03/25 09:31:07;;;;;;;4.30;2.47;;;;;;;;;;809410;169;919038;-65
2024/03/25 09:33:33;;;;;;;4.03;2.00;;;;;;;;;;818211;169;918948;-65
2024/03/25 09:35:58;;;;;;;3.20;2.23;;;;;;;;;;807758;172;917292;-63
2024/03/25 09:38:24;;;;;;;4.15;2.22;;;;;;;;;;802115;169;930200;-64
2024/03/25 09:40:50;;;;;;;3.63;2.40;;;;;;;;;;809615;169;1020556;-65
2024/03/25 09:43:17;;;;;;;3.10;1.93;;;;;;;;;;784168;178;922948;-64
2024/03/25 09:45:43;;;;;;;3.40;2.37;;;;;;;;;;810173;170;920312;-65
2024/03/25 09:48:09;;;;;;;2.93;1.70;;;;;;;;;;810146;169;917055;-65
2024/03/25 09:50:35;;;;;;;4.80;2.33;;;;;;;;;;813237;171;919392;-66
2024/03/25 09:53:00;;;;;;;3.62;2.08;;;;;;;;;;807845;169;919125;-65
2024/03/25 09:55:26;;;;;;;5.40;2.40;;;;;;;;;;811807;169;925561;-65
2024/03/25 09:57:52;;;;;;;4.57;2.00;;;;;;;;;;811383;169;919930;-65
2024/03/25 10:00:18;;;;;;;4.50;2.30;;;;;;;;;;804985;170;918938;-68
2024/03/25 10:02:44;;;;;;;3.53;3.00;;;;;;;;;;809098;171;953788;-64
2024/03/25 10:05:10;;;;;;;2.80;1.60;;;;;;;;;;823591;169;919847;-65
2024/03/25 10:07:35;;;;;;;3.97;2.30;;;;;;;;;;811356;169;916390;-65
2024/03/25 10:10:03;;;;;;;4.30;1.90;;;;;;;;;;812010;169;918923;-65
2024/03/25 10:12:29;;;;;;;3.33;1.90;;;;;;;;;;808853;170;896561;-65
2024/03/25 10:14:57;;;;;;;3.50;2.53;;;;;;;;;;812432;170;1021643;-65
2024/03/25 10:17:20;;;;;;;3.17;2.03;;;;;;;;;;804974;169;1021962;-66
2024/03/25 10:19:47;;;;;;;3.10;2.20;;;;;;;;;;806974;169;917972;-65
2024/03/25 10:22:12;;;;;;;4.73;2.80;;;;;;;;;;812089;173;837445;-65
2024/03/25 10:24:39;;;;;;;4.57;2.37;;;;;;;;;;803040;170;930387;-64
2024/03/25 10:27:05;;;;;;;4.70;2.30;;;;;;;;;;807516;170;918311;-66
2024/03/25 10:29:30;;;;;;;3.73;2.10;;;;;;;;;;811953;170;925583;-67
2024/03/25 10:31:59;;;;;;;3.83;2.27;;;;;;;;;;809892;169;918222;-64
2024/03/25 10:34:25;;;;;;;4.10;2.67;;;;;;;;;;808176;171;1023119;-65
2024/03/25 10:36:51;;;;;;;2.80;1.83;;;;;;;;;;810031;169;918544;-66
2024/03/25 10:39:17;;;;;;;9.83;2.40;;;;;;;;;;817792;169;1018730;-65
2024/03/25 10:41:42;;;;;;;2.90;2.07;;;;;;;;;;814082;170;914938;-65
2024/03/25 10:44:08;;;;;;;3.50;2.23;;;;;;;;;;813930;169;919010;-65
2024/03/25 10:46:34;;;;;;;3.13;2.50;;;;;;;;;;814819;169;915022;-66
2024/03/25 10:49:15;;;;;;;3.40;2.30;;;;;;;;;;811838;169;913020;-65
2024/03/25 10:51:41;;;;;;;6.23;2.63;;;;;;;;;;806764;172;918916;-66
2024/03/25 10:54:07;;;;;;;3.97;3.10;;;;;;;;;;810461;169;918544;-67
2024/03/25 10:56:32;;;;;;;4.10;2.97;;;;;;;;;;810620;171;920582;-67
2024/03/25 10:58:58;;;;;;;4.10;3.03;;;;;;;;;;804980;169;922963;-68
2024/03/25 11:01:24;;;;;;;4.53;3.00;;;;;;;;;;810430;169;924121;-67
2024/03/25 11:03:50;;;;;;;4.30;3.10;;;;;;;;;;815178;171;916081;-67
2024/03/25 11:06:16;;;;;;;3.60;2.87;;;;;;;;;;811053;169;909838;-66
2024/03/25 11:08:46;;;;;;;4.55;2.72;;;;;;;;;;816689;169;924299;-67
2024/03/25 11:11:08;;;;;;;3.55;3.08;;;;;;;;;;811421;170;917759;-67
2024/03/25 11:13:34;;;;;;;4.50;2.97;;;;;;;;;;806036;170;927530;-65
2024/03/25 11:16:01;;;;;;;4.70;2.93;;;;;;;;;;805505;169;922382;-67
2024/03/25 11:18:27;;;;;;;3.57;2.70;;;;;;;;;;809383;169;919668;-67
2024/03/25 11:20:57;;;;;;;4.87;3.20;;;;;;;;;;816099;169;634010;-68
2024/03/25 11:23:23;;;;;;;3.90;3.10;;;;;;;;;;797691;169;1010302;-67
2024/03/25 11:25:49;;;;;;;4.75;2.78;;;;;;;;;;807732;170;915123;-67
2024/03/25 11:28:15;;;;;;;3.50;2.30;;;;;;;;;;816080;169;911273;-66
2024/03/25 11:30:41;;;;;;;3.07;2.27;;;;;;;;;;815102;170;914701;-66
2024/03/25 11:33:06;;;;;;;3.47;2.77;;;;;;;;;;811308;169;907112;-67
2024/03/25 11:35:37;;;;;;;3.57;2.70;;;;;;;;;;814576;169;909049;-66
2024/03/25 11:38:03;;;;;;;3.27;2.53;;;;;;;;;;811976;172;917874;-66
2024/03/25 11:40:29;;;;;;;4.37;2.70;;;;;;;;;;797263;170;914811;-67
2024/03/25 11:42:55;;;;;;;4.20;2.77;;;;;;;;;;809297;170;923044;-67
2024/03/25 11:45:21;;;;;;;2.97;2.22;;;;;;;;;;814223;169;915250;-65
2024/03/25 11:47:46;;;;;;;3.40;2.17;;;;;;;;;;808101;172;920197;-65
2024/03/25 11:50:12;;;;;;;3.50;2.40;;;;;;;;;;811111;169;819379;-66
2024/03/25 11:52:38;;;;;;;4.23;1.60;;;;;;;;;;822585;169;616217;-65
2024/03/25 11:55:05;;;;;;;3.13;1.93;;;;;;;;;;799527;172;920958;-65
2024/03/25 11:57:30;;;;;;;4.37;2.00;;;;;;;;;;803121;172;913580;-65
2024/03/25 11:59:56;;;;;;;3.70;2.43;;;;;;;;;;814847;171;905054;-65
2024/03/25 12:02:22;;;;;;;3.40;2.10;;;;;;;;;;813206;169;898006;-65
2024/03/25 12:04:48;;;;;;;3.20;1.97;;;;;;;;;;810709;169;915772;-65
2024/03/25 12:07:14;;;;;;;2.77;1.67;;;;;;;;;;810883;169;922729;-66
2024/03/25 12:12:11;;;;;;;2.80;2.07;;;;;;;;;;808003;171;913260;-65
2024/03/25 12:14:37;;;;;;;3.30;1.90;;;;;;;;;;813701;169;903368;-65
2024/03/25 12:17:03;;;;;;;3.08;1.65;;;;;;;;;;813393;171;913019;-69
2024/03/25 12:19:30;;;;;;;3.03;2.00;;;;;;;;;;808708;169;914877;-64
2024/03/25 12:21:59;;;;;;;3.30;2.12;;;;;;;;;;807996;169;915148;-65
2024/03/25 12:24:25;;;;;;;7.30;1.90;;;;;;;;;;804324;169;944228;-65
2024/03/25 12:26:51;;;;;;;3.13;2.00;;;;;;;;;;815970;169;911818;-65
2024/03/25 12:29:16;;;;;;;5.20;3.15;;;;;;;;;;810163;169;912245;-65
2024/03/25 12:31:42;;;;;;;3.72;2.22;;;;;;;;;;810131;169;920544;-65
2024/03/25 12:34:11;;;;;;;3.17;1.97;;;;;;;;;;813922;169;920210;-66
2024/03/25 12:36:36;;;;;;;2.90;1.60;;;;;;;;;;812708;169;914775;-65
2024/03/25 12:39:02;;;;;;;2.95;1.55;;;;;;;;;;808588;169;919905;-65
2024/03/25 12:41:27;;;;;;;2.60;1.30;;;;;;;;;;802350;169;951810;-65
2024/03/25 12:43:53;;;;;;;2.70;1.40;;;;;;;;;;806780;170;918496;-65
2024/03/25 12:46:19;;;;;;;3.00;1.33;;;;;;;;;;810525;169;920564;-65
2024/03/25 12:48:45;;;;;;;3.40;1.43;;;;;;;;;;813273;169;917697;-65
2024/03/25 12:51:12;;;;;;;2.70;1.60;;;;;;;;;;801722;172;918721;-67
2024/03/25 12:53:37;;;;;;;3.50;1.80;;;;;;;;;;802632;170;910737;-65
2024/03/25 12:56:03;;;;;;;3.33;1.90;;;;;;;;;;808958;170;921487;-65
2024/03/25 12:58:29;;;;;;;6.33;2.50;;;;;;;;;;813861;172;918002;-64
2024/03/25 13:00:55;;;;;;;3.60;2.63;;;;;;;;;;819702;169;820205;-65
2024/03/25 13:03:21;;;;;;;2.92;1.80;;;;;;;;;;809857;169;912759;-65
2024/03/25 13:05:47;;;;;;;4.97;1.90;;;;;;;;;;819746;169;870398;-64
2024/03/25 13:08:13;;;;;;;3.67;1.67;;;;;;;;;;810026;169;916824;-65
2024/03/25 13:10:38;;;;;;;3.22;1.70;;;;;;;;;;811542;169;917666;-64
2024/03/25 13:13:05;;;;;;;2.57;1.70;;;;;;;;;;813893;169;919830;-65
2024/03/25 13:15:30;;;;;;;3.10;1.73;;;;;;;;;;809403;169;921263;-65
2024/03/25 13:17:56;;;;;;;2.47;1.40;;;;;;;;;;808293;170;912638;-65
2024/03/25 13:20:22;;;;;;;3.33;1.83;;;;;;;;;;814228;169;648030;-66
2024/03/25 13:22:48;;;;;;;2.70;1.50;;;;;;;;;;802693;173;902720;-66
2024/03/25 13:25:13;;;;;;;2.73;1.60;;;;;;;;;;808585;170;917879;-65
2024/03/25 13:27:39;;;;;;;3.00;1.63;;;;;;;;;;810232;169;915435;-66
2024/03/25 13:30:06;;;;;;;2.80;1.67;;;;;;;;;;819019;169;912320;-65
2024/03/25 13:32:32;;;;;;;3.07;1.50;;;;;;;;;;813488;170;661700;-65
2024/03/25 13:34:57;;;;;;;2.80;1.70;;;;;;;;;;810052;169;913176;-66
2024/03/25 13:37:23;;;;;;;3.10;1.87;;;;;;;;;;815117;169;919864;-66
2024/03/25 13:39:50;;;;;;;3.27;1.80;;;;;;;;;;799898;170;919015;-65
2024/03/25 13:42:15;;;;;;;3.63;1.97;;;;;;;;;;806811;170;918017;-66
2024/03/25 13:44:41;;;;;;;3.13;2.20;;;;;;;;;;812464;169;918444;-65
2024/03/25 13:47:07;;;;;;;3.80;2.07;;;;;;;;;;811197;169;862633;-65
2024/03/25 13:49:32;;;;;;;4.27;2.60;;;;;;;;;;809673;169;917740;-65
2024/03/25 13:51:59;;;;;;;3.42;2.12;;;;;;;;;;811459;170;918345;-66
2024/03/25 13:54:25;;;;;;;5.03;2.43;;;;;;;;;;793476;173;918362;-65
2024/03/25 13:56:51;;;;;;;3.37;2.17;;;;;;;;;;800758;172;916858;-67
2024/03/25 13:59:16;;;;;;;4.40;2.30;;;;;;;;;;807218;170;918141;-65
2024/03/25 14:01:42;;;;;;;4.33;2.70;;;;;;;;;;813729;171;921617;-65
2024/03/25 14:04:08;;;;;;;4.53;2.60;;;;;;;;;;806978;169;919352;-65
2024/03/25 14:06:36;;;;;;;3.70;2.27;;;;;;;;;;812390;169;757741;-65
2024/03/25 14:09:00;;;;;;;6.00;2.90;;;;;;;;;;813413;169;918927;-65
2024/03/25 14:11:26;;;;;;;5.07;3.00;;;;;;;;;;808053;169;1022690;-65
2024/03/25 14:13:51;;;;;;;3.85;2.87;;;;;;;;;;810003;168;939721;-66
2024/03/25 14:16:17;;;;;;;3.70;2.73;;;;;;;;;;814314;169;924385;-65
2024/03/25 14:18:43;;;;;;;6.10;2.60;;;;;;;;;;810826;169;919348;-64
2024/03/25 14:21:09;;;;;;;3.13;2.17;;;;;;;;;;809274;169;921413;-65
2024/03/25 14:23:35;;;;;;;3.97;2.83;;;;;;;;;;810268;169;919598;-65
2024/03/25 14:26:01;;;;;;;5.13;3.27;;;;;;;;;;812424;169;923150;-66
2024/03/25 14:28:27;;;;;;;4.20;2.60;;;;;;;;;;808825;169;939938;-65
2024/03/25 14:30:52;;;;;;;4.10;3.00;;;;;;;;;;811334;169;918934;-68